sensor_id;sensor_type;location;lat;lon;timestamp;P1;durP1;ratioP1;P2;durP2;ratioP2
4422;SDS011;2224;49.814;8.650;2022-08-25T00:00:08;4.10;;;3.80;;
4422;SDS011;2224;49.814;8.650;2022-08-25T00:02:34;5.60;;;3.67;;
4422;SDS011;2224;49.814;8.650;2022-08-25T00:04:59;3.67;;;3.37;;
4422;SDS011;2224;49.814;8.650;2022-08-25T00:07:24;4.27;;;3.57;;
4422;SDS011;2224;49.814;8.650;2022-08-25T00:09:50;4.50;;;3.70;;
4422;SDS011;2224;49.814;8.650;2022-08-25T00:12:15;4.83;;;4.00;;
4422;SDS011;2224;49.814;8.650;2022-08-25T00:14:41;5.97;;;3.40;;
4422;SDS011;2224;49.814;8.650;2022-08-25T00:17:07;5.30;;;3.37;;
4422;SDS011;2224;49.814;8.650;2022-08-25T00:19:34;5.10;;;3.40;;
4422;SDS011;2224;49.814;8.650;2022-08-25T00:22:01;4.77;;;3.67;;
4422;SDS011;2224;49.814;8.650;2022-08-25T00:24:27;4.10;;;3.80;;
4422;SDS011;2224;49.814;8.650;2022-08-25T00:26:54;4.30;;;4.00;;
4422;SDS011;2224;49.814;8.650;2022-08-25T00:29:21;4.60;;;4.20;;
4422;SDS011;2224;49.814;8.650;2022-08-25T00:31:47;4.07;;;3.43;;
4422;SDS011;2224;49.814;8.650;2022-08-25T00:34:17;4.00;;;3.70;;
4422;SDS011;2224;49.814;8.650;2022-08-25T00:36:44;5.43;;;4.10;;
4422;SDS011;2224;49.814;8.650;2022-08-25T00:39:11;4.50;;;4.17;;
4422;SDS011;2224;49.814;8.650;2022-08-25T00:41:37;5.03;;;4.53;;
4422;SDS011;2224;49.814;8.650;2022-08-25T00:44:05;5.07;;;4.50;;
4422;SDS011;2224;49.814;8.650;2022-08-25T00:46:33;4.50;;;4.10;;
4422;SDS011;2224;49.814;8.650;2022-08-25T00:49:09;8.53;;;4.73;;
4422;SDS011;2224;49.814;8.650;2022-08-25T00:51:38;5.00;;;4.50;;
4422;SDS011;2224;49.814;8.650;2022-08-25T00:54:05;5.90;;;4.90;;
4422;SDS011;2224;49.814;8.650;2022-08-25T00:56:31;5.07;;;4.67;;
4422;SDS011;2224;49.814;8.650;2022-08-25T00:58:58;4.60;;;4.20;;
4422;SDS011;2224;49.814;8.650;2022-08-25T01:01:24;5.40;;;4.77;;
4422;SDS011;2224;49.814;8.650;2022-08-25T01:03:50;6.43;;;5.83;;
4422;SDS011;2224;49.814;8.650;2022-08-25T01:06:16;5.73;;;5.10;;
4422;SDS011;2224;49.814;8.650;2022-08-25T01:08:41;5.57;;;5.07;;
4422;SDS011;2224;49.814;8.650;2022-08-25T01:11:08;4.93;;;4.53;;
4422;SDS011;2224;49.814;8.650;2022-08-25T01:13:44;5.87;;;4.93;;
4422;SDS011;2224;49.814;8.650;2022-08-25T01:16:13;5.70;;;5.20;;
4422;SDS011;2224;49.814;8.650;2022-08-25T01:18:57;7.90;;;5.20;;
4422;SDS011;2224;49.814;8.650;2022-08-25T01:21:25;6.63;;;5.10;;
4422;SDS011;2224;49.814;8.650;2022-08-25T01:23:51;5.07;;;4.67;;
4422;SDS011;2224;49.814;8.650;2022-08-25T01:26:18;6.10;;;5.50;;
4422;SDS011;2224;49.814;8.650;2022-08-25T01:28:46;5.87;;;5.37;;
4422;SDS011;2224;49.814;8.650;2022-08-25T01:31:31;6.67;;;5.40;;
4422;SDS011;2224;49.814;8.650;2022-08-25T01:33:57;6.30;;;5.80;;
4422;SDS011;2224;49.814;8.650;2022-08-25T01:36:24;6.07;;;5.57;;
4422;SDS011;2224;49.814;8.650;2022-08-25T01:38:51;6.50;;;4.87;;
4422;SDS011;2224;49.814;8.650;2022-08-25T01:41:20;6.50;;;5.37;;
4422;SDS011;2224;49.814;8.650;2022-08-25T01:43:51;6.07;;;5.53;;
4422;SDS011;2224;49.814;8.650;2022-08-25T01:46:17;6.73;;;5.60;;
4422;SDS011;2224;49.814;8.650;2022-08-25T01:48:42;5.33;;;4.80;;
4422;SDS011;2224;49.814;8.650;2022-08-25T01:51:07;5.70;;;5.20;;
4422;SDS011;2224;49.814;8.650;2022-08-25T01:53:33;6.17;;;5.57;;
4422;SDS011;2224;49.814;8.650;2022-08-25T01:55:58;5.93;;;5.40;;
4422;SDS011;2224;49.814;8.650;2022-08-25T01:58:28;5.60;;;5.10;;
4422;SDS011;2224;49.814;8.650;2022-08-25T02:00:59;5.90;;;5.40;;
4422;SDS011;2224;49.814;8.650;2022-08-25T02:03:26;6.40;;;5.80;;
4422;SDS011;2224;49.814;8.650;2022-08-25T02:05:55;5.90;;;5.33;;
4422;SDS011;2224;49.814;8.650;2022-08-25T02:08:21;6.17;;;5.57;;
4422;SDS011;2224;49.814;8.650;2022-08-25T02:10:47;6.30;;;5.70;;
4422;SDS011;2224;49.814;8.650;2022-08-25T02:13:13;5.80;;;5.30;;
4422;SDS011;2224;49.814;8.650;2022-08-25T02:15:44;6.30;;;5.70;;
4422;SDS011;2224;49.814;8.650;2022-08-25T02:18:12;6.20;;;5.70;;
4422;SDS011;2224;49.814;8.650;2022-08-25T02:20:37;6.40;;;5.43;;
4422;SDS011;2224;49.814;8.650;2022-08-25T02:23:03;7.10;;;6.40;;
4422;SDS011;2224;49.814;8.650;2022-08-25T02:25:29;6.50;;;5.90;;
4422;SDS011;2224;49.814;8.650;2022-08-25T02:27:55;5.87;;;5.37;;
4422;SDS011;2224;49.814;8.650;2022-08-25T02:30:21;8.30;;;6.03;;
4422;SDS011;2224;49.814;8.650;2022-08-25T02:32:46;6.33;;;5.73;;
4422;SDS011;2224;49.814;8.650;2022-08-25T02:35:12;7.07;;;5.80;;
4422;SDS011;2224;49.814;8.650;2022-08-25T02:37:37;6.60;;;6.00;;
4422;SDS011;2224;49.814;8.650;2022-08-25T02:40:03;6.33;;;5.70;;
4422;SDS011;2224;49.814;8.650;2022-08-25T02:42:29;6.50;;;5.90;;
4422;SDS011;2224;49.814;8.650;2022-08-25T02:44:54;5.73;;;5.23;;
4422;SDS011;2224;49.814;8.650;2022-08-25T02:47:20;6.90;;;6.07;;
4422;SDS011;2224;49.814;8.650;2022-08-25T02:49:46;6.90;;;6.17;;
4422;SDS011;2224;49.814;8.650;2022-08-25T02:52:12;6.30;;;5.70;;
4422;SDS011;2224;49.814;8.650;2022-08-25T02:54:38;5.90;;;5.40;;
4422;SDS011;2224;49.814;8.650;2022-08-25T02:57:03;6.77;;;6.17;;
4422;SDS011;2224;49.814;8.650;2022-08-25T02:59:29;6.60;;;5.90;;
4422;SDS011;2224;49.814;8.650;2022-08-25T03:01:54;7.67;;;6.23;;
4422;SDS011;2224;49.814;8.650;2022-08-25T03:04:20;6.90;;;6.30;;
4422;SDS011;2224;49.814;8.650;2022-08-25T03:06:45;7.23;;;6.47;;
4422;SDS011;2224;49.814;8.650;2022-08-25T03:09:10;6.63;;;6.03;;
4422;SDS011;2224;49.814;8.650;2022-08-25T03:11:36;7.20;;;6.57;;
4422;SDS011;2224;49.814;8.650;2022-08-25T03:14:04;6.73;;;6.00;;
4422;SDS011;2224;49.814;8.650;2022-08-25T03:16:30;9.00;;;6.30;;
4422;SDS011;2224;49.814;8.650;2022-08-25T03:18:56;6.33;;;5.73;;
4422;SDS011;2224;49.814;8.650;2022-08-25T03:21:21;5.77;;;5.27;;
4422;SDS011;2224;49.814;8.650;2022-08-25T03:23:47;6.27;;;5.77;;
4422;SDS011;2224;49.814;8.650;2022-08-25T03:26:12;8.73;;;6.17;;
4422;SDS011;2224;49.814;8.650;2022-08-25T03:28:56;6.40;;;5.87;;
4422;SDS011;2224;49.814;8.650;2022-08-25T03:31:22;7.27;;;6.40;;
4422;SDS011;2224;49.814;8.650;2022-08-25T03:33:50;6.53;;;5.93;;
4422;SDS011;2224;49.814;8.650;2022-08-25T03:36:16;8.97;;;5.50;;
4422;SDS011;2224;49.814;8.650;2022-08-25T03:38:41;6.23;;;5.63;;
4422;SDS011;2224;49.814;8.650;2022-08-25T03:41:14;8.10;;;6.07;;
4422;SDS011;2224;49.814;8.650;2022-08-25T03:43:45;9.43;;;6.97;;
4422;SDS011;2224;49.814;8.650;2022-08-25T03:46:22;7.17;;;6.50;;
4422;SDS011;2224;49.814;8.650;2022-08-25T03:48:49;8.37;;;6.07;;
4422;SDS011;2224;49.814;8.650;2022-08-25T03:51:25;7.10;;;6.00;;
4422;SDS011;2224;49.814;8.650;2022-08-25T03:53:51;6.70;;;6.10;;
4422;SDS011;2224;49.814;8.650;2022-08-25T03:56:17;6.70;;;6.20;;
4422;SDS011;2224;49.814;8.650;2022-08-25T03:58:43;7.50;;;6.67;;
4422;SDS011;2224;49.814;8.650;2022-08-25T04:01:08;7.23;;;6.30;;
4422;SDS011;2224;49.814;8.650;2022-08-25T04:03:34;7.47;;;6.03;;
4422;SDS011;2224;49.814;8.650;2022-08-25T04:06:03;8.87;;;6.30;;
4422;SDS011;2224;49.814;8.650;2022-08-25T04:08:30;7.33;;;6.20;;
4422;SDS011;2224;49.814;8.650;2022-08-25T04:10:55;7.93;;;6.83;;
4422;SDS011;2224;49.814;8.650;2022-08-25T04:13:21;6.93;;;6.43;;
4422;SDS011;2224;49.814;8.650;2022-08-25T04:15:46;7.47;;;6.77;;
4422;SDS011;2224;49.814;8.650;2022-08-25T04:18:12;6.83;;;6.00;;
4422;SDS011;2224;49.814;8.650;2022-08-25T04:20:41;6.90;;;6.20;;
4422;SDS011;2224;49.814;8.650;2022-08-25T04:23:07;9.37;;;6.40;;
4422;SDS011;2224;49.814;8.650;2022-08-25T04:25:34;6.90;;;6.30;;
4422;SDS011;2224;49.814;8.650;2022-08-25T04:27:59;7.90;;;6.60;;
4422;SDS011;2224;49.814;8.650;2022-08-25T04:30:25;7.83;;;6.97;;
4422;SDS011;2224;49.814;8.650;2022-08-25T04:32:51;7.60;;;6.60;;
4422;SDS011;2224;49.814;8.650;2022-08-25T04:35:16;7.53;;;6.73;;
4422;SDS011;2224;49.814;8.650;2022-08-25T04:37:42;6.93;;;6.40;;
4422;SDS011;2224;49.814;8.650;2022-08-25T04:40:07;7.47;;;6.83;;
4422;SDS011;2224;49.814;8.650;2022-08-25T04:42:34;7.23;;;6.53;;
4422;SDS011;2224;49.814;8.650;2022-08-25T04:44:59;7.60;;;6.83;;
4422;SDS011;2224;49.814;8.650;2022-08-25T04:47:26;8.50;;;7.23;;
4422;SDS011;2224;49.814;8.650;2022-08-25T04:49:52;8.30;;;7.47;;
4422;SDS011;2224;49.814;8.650;2022-08-25T04:52:17;13.30;;;8.27;;
4422;SDS011;2224;49.814;8.650;2022-08-25T04:54:42;8.10;;;7.40;;
4422;SDS011;2224;49.814;8.650;2022-08-25T04:57:08;8.40;;;7.60;;
4422;SDS011;2224;49.814;8.650;2022-08-25T04:59:34;8.20;;;7.60;;
4422;SDS011;2224;49.814;8.650;2022-08-25T05:02:00;7.43;;;6.73;;
4422;SDS011;2224;49.814;8.650;2022-08-25T05:04:29;9.00;;;7.43;;
4422;SDS011;2224;49.814;8.650;2022-08-25T05:06:55;9.90;;;7.33;;
4422;SDS011;2224;49.814;8.650;2022-08-25T05:09:21;8.57;;;7.73;;
4422;SDS011;2224;49.814;8.650;2022-08-25T05:11:46;8.60;;;7.80;;
4422;SDS011;2224;49.814;8.650;2022-08-25T05:14:12;7.87;;;7.17;;
4422;SDS011;2224;49.814;8.650;2022-08-25T05:16:39;12.97;;;7.87;;
4422;SDS011;2224;49.814;8.650;2022-08-25T05:19:05;9.47;;;8.50;;
4422;SDS011;2224;49.814;8.650;2022-08-25T05:21:31;8.60;;;7.80;;
4422;SDS011;2224;49.814;8.650;2022-08-25T05:23:58;8.80;;;8.00;;
4422;SDS011;2224;49.814;8.650;2022-08-25T05:26:24;10.10;;;8.10;;
4422;SDS011;2224;49.814;8.650;2022-08-25T05:28:53;9.13;;;7.43;;
4422;SDS011;2224;49.814;8.650;2022-08-25T05:31:19;7.83;;;7.13;;
4422;SDS011;2224;49.814;8.650;2022-08-25T05:33:45;8.50;;;7.60;;
4422;SDS011;2224;49.814;8.650;2022-08-25T05:36:11;9.00;;;8.10;;
4422;SDS011;2224;49.814;8.650;2022-08-25T05:38:37;8.93;;;7.67;;
4422;SDS011;2224;49.814;8.650;2022-08-25T05:41:06;8.53;;;7.83;;
4422;SDS011;2224;49.814;8.650;2022-08-25T05:43:34;11.87;;;8.43;;
4422;SDS011;2224;49.814;8.650;2022-08-25T05:46:00;9.93;;;9.00;;
4422;SDS011;2224;49.814;8.650;2022-08-25T05:48:26;8.80;;;7.97;;
4422;SDS011;2224;49.814;8.650;2022-08-25T05:50:52;8.90;;;8.07;;
4422;SDS011;2224;49.814;8.650;2022-08-25T05:53:22;10.40;;;9.23;;
4422;SDS011;2224;49.814;8.650;2022-08-25T05:55:49;9.50;;;8.27;;
4422;SDS011;2224;49.814;8.650;2022-08-25T05:58:15;9.63;;;8.73;;
4422;SDS011;2224;49.814;8.650;2022-08-25T06:00:41;10.40;;;9.30;;
4422;SDS011;2224;49.814;8.650;2022-08-25T06:03:06;9.20;;;8.40;;
4422;SDS011;2224;49.814;8.650;2022-08-25T06:05:31;9.80;;;8.83;;
4422;SDS011;2224;49.814;8.650;2022-08-25T06:07:57;9.67;;;8.67;;
4422;SDS011;2224;49.814;8.650;2022-08-25T06:10:23;9.17;;;8.37;;
4422;SDS011;2224;49.814;8.650;2022-08-25T06:12:49;11.90;;;9.00;;
4422;SDS011;2224;49.814;8.650;2022-08-25T06:15:16;10.37;;;8.80;;
4422;SDS011;2224;49.814;8.650;2022-08-25T06:17:43;8.90;;;8.10;;
4422;SDS011;2224;49.814;8.650;2022-08-25T06:20:10;10.60;;;8.87;;
4422;SDS011;2224;49.814;8.650;2022-08-25T06:22:37;9.30;;;8.50;;
4422;SDS011;2224;49.814;8.650;2022-08-25T06:25:04;9.13;;;8.33;;
4422;SDS011;2224;49.814;8.650;2022-08-25T06:27:29;10.00;;;9.00;;
4422;SDS011;2224;49.814;8.650;2022-08-25T06:29:55;9.27;;;8.40;;
4422;SDS011;2224;49.814;8.650;2022-08-25T06:32:20;10.10;;;9.10;;
4422;SDS011;2224;49.814;8.650;2022-08-25T06:34:46;10.63;;;9.73;;
4422;SDS011;2224;49.814;8.650;2022-08-25T06:37:11;10.10;;;9.17;;
4422;SDS011;2224;49.814;8.650;2022-08-25T06:39:37;11.10;;;9.23;;
4422;SDS011;2224;49.814;8.650;2022-08-25T06:42:02;9.93;;;8.97;;
4422;SDS011;2224;49.814;8.650;2022-08-25T06:44:28;9.90;;;9.00;;
4422;SDS011;2224;49.814;8.650;2022-08-25T06:46:53;11.07;;;10.07;;
4422;SDS011;2224;49.814;8.650;2022-08-25T06:49:19;10.73;;;8.80;;
4422;SDS011;2224;49.814;8.650;2022-08-25T06:51:44;10.70;;;9.70;;
4422;SDS011;2224;49.814;8.650;2022-08-25T06:54:10;10.23;;;9.17;;
4422;SDS011;2224;49.814;8.650;2022-08-25T06:56:36;10.60;;;9.60;;
4422;SDS011;2224;49.814;8.650;2022-08-25T06:59:04;10.67;;;9.40;;
4422;SDS011;2224;49.814;8.650;2022-08-25T07:01:30;11.73;;;9.77;;
4422;SDS011;2224;49.814;8.650;2022-08-25T07:03:57;10.50;;;9.50;;
4422;SDS011;2224;49.814;8.650;2022-08-25T07:06:24;9.53;;;8.73;;
4422;SDS011;2224;49.814;8.650;2022-08-25T07:08:51;11.47;;;10.37;;
4422;SDS011;2224;49.814;8.650;2022-08-25T07:11:16;10.27;;;9.27;;
4422;SDS011;2224;49.814;8.650;2022-08-25T07:13:43;11.90;;;9.23;;
4422;SDS011;2224;49.814;8.650;2022-08-25T07:16:08;10.40;;;9.40;;
4422;SDS011;2224;49.814;8.650;2022-08-25T07:18:35;10.50;;;9.50;;
4422;SDS011;2224;49.814;8.650;2022-08-25T07:21:01;10.67;;;9.67;;
4422;SDS011;2224;49.814;8.650;2022-08-25T07:23:26;10.27;;;9.27;;
4422;SDS011;2224;49.814;8.650;2022-08-25T07:25:52;11.03;;;10.00;;
4422;SDS011;2224;49.814;8.650;2022-08-25T07:28:18;9.80;;;8.90;;
4422;SDS011;2224;49.814;8.650;2022-08-25T07:30:44;9.63;;;8.73;;
4422;SDS011;2224;49.814;8.650;2022-08-25T07:33:10;10.07;;;9.10;;
4422;SDS011;2224;49.814;8.650;2022-08-25T07:35:35;18.40;;;8.70;;
4422;SDS011;2224;49.814;8.650;2022-08-25T07:38:02;10.30;;;9.30;;
4422;SDS011;2224;49.814;8.650;2022-08-25T07:40:29;10.37;;;9.37;;
4422;SDS011;2224;49.814;8.650;2022-08-25T07:42:58;11.93;;;9.57;;
4422;SDS011;2224;49.814;8.650;2022-08-25T07:45:25;10.47;;;9.47;;
4422;SDS011;2224;49.814;8.650;2022-08-25T07:47:56;10.33;;;9.20;;
4422;SDS011;2224;49.814;8.650;2022-08-25T07:50:22;10.90;;;9.80;;
4422;SDS011;2224;49.814;8.650;2022-08-25T07:52:47;10.50;;;9.00;;
4422;SDS011;2224;49.814;8.650;2022-08-25T07:55:13;10.77;;;9.67;;
4422;SDS011;2224;49.814;8.650;2022-08-25T07:57:39;9.70;;;8.80;;
4422;SDS011;2224;49.814;8.650;2022-08-25T08:00:06;10.20;;;9.20;;
4422;SDS011;2224;49.814;8.650;2022-08-25T08:02:33;10.10;;;9.10;;
4422;SDS011;2224;49.814;8.650;2022-08-25T08:04:58;10.70;;;9.30;;
4422;SDS011;2224;49.814;8.650;2022-08-25T08:07:24;10.50;;;9.50;;
4422;SDS011;2224;49.814;8.650;2022-08-25T08:09:51;12.40;;;9.90;;
4422;SDS011;2224;49.814;8.650;2022-08-25T08:12:17;9.83;;;9.03;;
4422;SDS011;2224;49.814;8.650;2022-08-25T08:14:43;10.23;;;8.97;;
4422;SDS011;2224;49.814;8.650;2022-08-25T08:17:10;18.53;;;9.10;;
4422;SDS011;2224;49.814;8.650;2022-08-25T08:19:36;9.67;;;8.77;;
4422;SDS011;2224;49.814;8.650;2022-08-25T08:22:03;10.57;;;9.67;;
4422;SDS011;2224;49.814;8.650;2022-08-25T08:24:30;11.73;;;9.13;;
4422;SDS011;2224;49.814;8.650;2022-08-25T08:27:02;9.77;;;8.80;;
4422;SDS011;2224;49.814;8.650;2022-08-25T08:29:29;10.63;;;9.60;;
4422;SDS011;2224;49.814;8.650;2022-08-25T08:31:55;9.70;;;8.13;;
4422;SDS011;2224;49.814;8.650;2022-08-25T08:34:20;9.53;;;8.63;;
4422;SDS011;2224;49.814;8.650;2022-08-25T08:36:48;9.73;;;8.80;;
4422;SDS011;2224;49.814;8.650;2022-08-25T08:39:14;9.60;;;8.70;;
4422;SDS011;2224;49.814;8.650;2022-08-25T08:41:43;11.20;;;9.67;;
4422;SDS011;2224;49.814;8.650;2022-08-25T08:47:23;9.10;;;8.27;;
4422;SDS011;2224;49.814;8.650;2022-08-25T08:49:59;9.10;;;8.20;;
4422;SDS011;2224;49.814;8.650;2022-08-25T08:57:52;10.17;;;9.27;;
4422;SDS011;2224;49.814;8.650;2022-08-25T09:00:19;8.93;;;8.13;;
4422;SDS011;2224;49.814;8.650;2022-08-25T09:02:54;10.27;;;9.30;;
4422;SDS011;2224;49.814;8.650;2022-08-25T09:05:23;10.87;;;9.83;;
4422;SDS011;2224;49.814;8.650;2022-08-25T09:08:07;8.97;;;8.13;;
4422;SDS011;2224;49.814;8.650;2022-08-25T09:13:51;9.63;;;8.73;;
4422;SDS011;2224;49.814;8.650;2022-08-25T09:30:02;8.30;;;7.50;;
4422;SDS011;2224;49.814;8.650;2022-08-25T09:32:32;7.90;;;7.20;;
4422;SDS011;2224;49.814;8.650;2022-08-25T09:35:00;9.73;;;8.77;;
4422;SDS011;2224;49.814;8.650;2022-08-25T09:37:26;7.97;;;7.33;;
4422;SDS011;2224;49.814;8.650;2022-08-25T09:39:51;10.33;;;7.80;;
4422;SDS011;2224;49.814;8.650;2022-08-25T09:42:17;8.87;;;7.97;;
4422;SDS011;2224;49.814;8.650;2022-08-25T09:44:44;8.20;;;7.50;;
4422;SDS011;2224;49.814;8.650;2022-08-25T09:49:55;8.93;;;8.13;;
4422;SDS011;2224;49.814;8.650;2022-08-25T09:54:53;9.47;;;8.67;;
4422;SDS011;2224;49.814;8.650;2022-08-25T09:57:31;8.27;;;7.57;;
4422;SDS011;2224;49.814;8.650;2022-08-25T10:02:36;8.63;;;7.10;;
4422;SDS011;2224;49.814;8.650;2022-08-25T10:05:24;7.93;;;7.20;;
4422;SDS011;2224;49.814;8.650;2022-08-25T10:07:54;8.10;;;7.40;;
4422;SDS011;2224;49.814;8.650;2022-08-25T10:10:26;8.37;;;7.57;;
4422;SDS011;2224;49.814;8.650;2022-08-25T10:12:54;9.37;;;7.60;;
4422;SDS011;2224;49.814;8.650;2022-08-25T10:15:32;8.10;;;7.30;;
4422;SDS011;2224;49.814;8.650;2022-08-25T10:18:23;7.30;;;6.70;;
4422;SDS011;2224;49.814;8.650;2022-08-25T10:23:26;7.30;;;6.70;;
4422;SDS011;2224;49.814;8.650;2022-08-25T10:25:52;7.63;;;6.93;;
4422;SDS011;2224;49.814;8.650;2022-08-25T10:46:49;8.33;;;6.63;;
4422;SDS011;2224;49.814;8.650;2022-08-25T10:49:22;7.40;;;6.80;;
4422;SDS011;2224;49.814;8.650;2022-08-25T10:52:00;7.00;;;6.43;;
4422;SDS011;2224;49.814;8.650;2022-08-25T11:00:30;6.87;;;5.70;;
4422;SDS011;2224;49.814;8.650;2022-08-25T11:08:22;7.07;;;6.37;;
4422;SDS011;2224;49.814;8.650;2022-08-25T11:16:42;5.20;;;4.80;;
4422;SDS011;2224;49.814;8.650;2022-08-25T11:22:06;6.23;;;5.70;;
4422;SDS011;2224;49.814;8.650;2022-08-25T11:30:05;5.47;;;5.07;;
4422;SDS011;2224;49.814;8.650;2022-08-25T11:32:37;6.27;;;5.67;;
4422;SDS011;2224;49.814;8.650;2022-08-25T11:35:05;6.53;;;6.00;;
4422;SDS011;2224;49.814;8.650;2022-08-25T11:37:32;6.80;;;6.10;;
4422;SDS011;2224;49.814;8.650;2022-08-25T11:40:03;5.90;;;5.33;;
4422;SDS011;2224;49.814;8.650;2022-08-25T11:51:44;6.53;;;5.93;;
4422;SDS011;2224;49.814;8.650;2022-08-25T11:56:58;5.77;;;5.27;;
4422;SDS011;2224;49.814;8.650;2022-08-25T12:04:56;6.43;;;5.83;;
4422;SDS011;2224;49.814;8.650;2022-08-25T12:07:23;6.07;;;5.47;;
4422;SDS011;2224;49.814;8.650;2022-08-25T12:23:16;6.43;;;5.83;;
4422;SDS011;2224;49.814;8.650;2022-08-25T12:26:20;5.73;;;5.23;;
4422;SDS011;2224;49.814;8.650;2022-08-25T12:37:03;9.70;;;6.07;;
4422;SDS011;2224;49.814;8.650;2022-08-25T12:39:42;7.03;;;5.80;;
4422;SDS011;2224;49.814;8.650;2022-08-25T12:47:49;5.40;;;4.90;;
4422;SDS011;2224;49.814;8.650;2022-08-25T12:50:37;5.20;;;4.70;;
4422;SDS011;2224;49.814;8.650;2022-08-25T12:53:09;5.17;;;4.77;;
4422;SDS011;2224;49.814;8.650;2022-08-25T12:55:36;5.33;;;4.67;;
4422;SDS011;2224;49.814;8.650;2022-08-25T12:58:02;5.00;;;4.60;;
4422;SDS011;2224;49.814;8.650;2022-08-25T13:00:32;5.80;;;5.40;;
4422;SDS011;2224;49.814;8.650;2022-08-25T13:06:10;4.87;;;4.47;;
4422;SDS011;2224;49.814;8.650;2022-08-25T13:08:49;6.90;;;4.70;;
4422;SDS011;2224;49.814;8.650;2022-08-25T13:11:44;5.33;;;4.93;;
4422;SDS011;2224;49.814;8.650;2022-08-25T13:14:15;4.43;;;4.03;;
4422;SDS011;2224;49.814;8.650;2022-08-25T13:19:19;5.70;;;5.10;;
4422;SDS011;2224;49.814;8.650;2022-08-25T13:21:44;4.80;;;4.40;;
4422;SDS011;2224;49.814;8.650;2022-08-25T13:27:21;4.27;;;3.87;;
4422;SDS011;2224;49.814;8.650;2022-08-25T13:29:50;4.90;;;4.50;;
4422;SDS011;2224;49.814;8.650;2022-08-25T13:32:24;4.80;;;4.33;;
4422;SDS011;2224;49.814;8.650;2022-08-25T13:35:17;4.97;;;4.57;;
4422;SDS011;2224;49.814;8.650;2022-08-25T13:37:48;5.40;;;4.90;;
4422;SDS011;2224;49.814;8.650;2022-08-25T13:42:46;4.90;;;4.47;;
4422;SDS011;2224;49.814;8.650;2022-08-25T13:45:17;5.00;;;4.60;;
4422;SDS011;2224;49.814;8.650;2022-08-25T13:47:48;5.07;;;4.63;;
4422;SDS011;2224;49.814;8.650;2022-08-25T13:52:55;4.63;;;4.23;;
4422;SDS011;2224;49.814;8.650;2022-08-25T13:57:58;6.93;;;4.90;;
4422;SDS011;2224;49.814;8.650;2022-08-25T14:00:28;4.77;;;4.37;;
4422;SDS011;2224;49.814;8.650;2022-08-25T14:02:59;5.90;;;5.40;;
4422;SDS011;2224;49.814;8.650;2022-08-25T14:08:06;5.10;;;4.70;;
4422;SDS011;2224;49.814;8.650;2022-08-25T14:10:50;5.70;;;5.30;;
4422;SDS011;2224;49.814;8.650;2022-08-25T14:15:52;4.83;;;4.47;;
4422;SDS011;2224;49.814;8.650;2022-08-25T14:18:18;5.70;;;5.13;;
4422;SDS011;2224;49.814;8.650;2022-08-25T14:20:48;5.13;;;4.73;;
4422;SDS011;2224;49.814;8.650;2022-08-25T14:23:17;5.00;;;4.57;;
4422;SDS011;2224;49.814;8.650;2022-08-25T14:25:43;4.90;;;4.50;;
4422;SDS011;2224;49.814;8.650;2022-08-25T14:28:11;5.53;;;4.50;;
4422;SDS011;2224;49.814;8.650;2022-08-25T14:30:39;5.33;;;4.67;;
4422;SDS011;2224;49.814;8.650;2022-08-25T14:33:07;4.90;;;4.37;;
4422;SDS011;2224;49.814;8.650;2022-08-25T14:35:34;4.90;;;4.60;;
4422;SDS011;2224;49.814;8.650;2022-08-25T14:38:01;5.30;;;4.80;;
4422;SDS011;2224;49.814;8.650;2022-08-25T14:40:27;4.93;;;4.43;;
4422;SDS011;2224;49.814;8.650;2022-08-25T14:42:53;4.40;;;4.00;;
4422;SDS011;2224;49.814;8.650;2022-08-25T14:45:18;5.00;;;4.60;;
4422;SDS011;2224;49.814;8.650;2022-08-25T14:47:43;4.17;;;3.77;;
4422;SDS011;2224;49.814;8.650;2022-08-25T14:50:10;5.37;;;4.03;;
4422;SDS011;2224;49.814;8.650;2022-08-25T14:52:36;4.90;;;4.50;;
4422;SDS011;2224;49.814;8.650;2022-08-25T14:55:02;7.80;;;5.20;;
4422;SDS011;2224;49.814;8.650;2022-08-25T14:57:27;5.90;;;4.40;;
4422;SDS011;2224;49.814;8.650;2022-08-25T14:59:53;4.90;;;4.27;;
4422;SDS011;2224;49.814;8.650;2022-08-25T15:02:19;4.80;;;4.47;;
4422;SDS011;2224;49.814;8.650;2022-08-25T15:04:48;4.80;;;4.40;;
4422;SDS011;2224;49.814;8.650;2022-08-25T15:07:15;4.70;;;4.30;;
4422;SDS011;2224;49.814;8.650;2022-08-25T15:09:59;4.60;;;4.20;;
4422;SDS011;2224;49.814;8.650;2022-08-25T15:12:24;4.30;;;4.00;;
4422;SDS011;2224;49.814;8.650;2022-08-25T15:14:50;4.30;;;4.00;;
4422;SDS011;2224;49.814;8.650;2022-08-25T15:17:15;4.60;;;4.20;;
4422;SDS011;2224;49.814;8.650;2022-08-25T15:19:41;5.17;;;4.77;;
4422;SDS011;2224;49.814;8.650;2022-08-25T15:22:06;4.50;;;4.10;;
4422;SDS011;2224;49.814;8.650;2022-08-25T15:24:32;5.40;;;4.90;;
4422;SDS011;2224;49.814;8.650;2022-08-25T15:26:58;6.23;;;4.10;;
4422;SDS011;2224;49.814;8.650;2022-08-25T15:29:26;5.30;;;4.80;;
4422;SDS011;2224;49.814;8.650;2022-08-25T15:31:54;5.80;;;5.30;;
4422;SDS011;2224;49.814;8.650;2022-08-25T15:34:19;5.60;;;5.10;;
4422;SDS011;2224;49.814;8.650;2022-08-25T15:36:45;5.03;;;4.63;;
4422;SDS011;2224;49.814;8.650;2022-08-25T15:39:10;4.73;;;4.33;;
4422;SDS011;2224;49.814;8.650;2022-08-25T15:41:36;4.37;;;3.97;;
4422;SDS011;2224;49.814;8.650;2022-08-25T15:44:02;5.70;;;4.03;;
4422;SDS011;2224;49.814;8.650;2022-08-25T15:46:28;4.93;;;4.43;;
4422;SDS011;2224;49.814;8.650;2022-08-25T15:48:55;6.60;;;4.63;;
4422;SDS011;2224;49.814;8.650;2022-08-25T15:51:24;5.00;;;4.60;;
4422;SDS011;2224;49.814;8.650;2022-08-25T15:53:51;5.00;;;4.60;;
4422;SDS011;2224;49.814;8.650;2022-08-25T15:56:17;5.10;;;4.70;;
4422;SDS011;2224;49.814;8.650;2022-08-25T15:58:43;5.10;;;4.70;;
4422;SDS011;2224;49.814;8.650;2022-08-25T16:01:13;5.70;;;4.80;;
4422;SDS011;2224;49.814;8.650;2022-08-25T16:03:39;4.90;;;4.50;;
4422;SDS011;2224;49.814;8.650;2022-08-25T16:06:05;5.23;;;4.70;;
4422;SDS011;2224;49.814;8.650;2022-08-25T16:08:30;6.27;;;4.73;;
4422;SDS011;2224;49.814;8.650;2022-08-25T16:10:57;4.93;;;4.43;;
4422;SDS011;2224;49.814;8.650;2022-08-25T16:13:22;5.20;;;4.70;;
4422;SDS011;2224;49.814;8.650;2022-08-25T16:15:48;4.50;;;4.20;;
4422;SDS011;2224;49.814;8.650;2022-08-25T16:18:13;5.03;;;4.63;;
4422;SDS011;2224;49.814;8.650;2022-08-25T16:20:41;5.00;;;4.60;;
4422;SDS011;2224;49.814;8.650;2022-08-25T16:23:10;4.83;;;4.43;;
4422;SDS011;2224;49.814;8.650;2022-08-25T16:25:39;5.00;;;4.60;;
4422;SDS011;2224;49.814;8.650;2022-08-25T16:28:06;5.13;;;4.67;;
4422;SDS011;2224;49.814;8.650;2022-08-25T16:30:31;4.70;;;4.23;;
4422;SDS011;2224;49.814;8.650;2022-08-25T16:32:57;4.43;;;4.13;;
4422;SDS011;2224;49.814;8.650;2022-08-25T16:35:22;5.50;;;4.30;;
4422;SDS011;2224;49.814;8.650;2022-08-25T16:37:47;5.50;;;5.10;;
4422;SDS011;2224;49.814;8.650;2022-08-25T16:40:13;4.90;;;4.30;;
4422;SDS011;2224;49.814;8.650;2022-08-25T16:42:39;5.57;;;4.70;;
4422;SDS011;2224;49.814;8.650;2022-08-25T16:45:04;5.03;;;4.63;;
4422;SDS011;2224;49.814;8.650;2022-08-25T16:47:30;6.93;;;4.87;;
4422;SDS011;2224;49.814;8.650;2022-08-25T16:50:00;6.83;;;4.80;;
4422;SDS011;2224;49.814;8.650;2022-08-25T16:52:27;5.40;;;4.90;;
4422;SDS011;2224;49.814;8.650;2022-08-25T16:55:11;4.83;;;4.43;;
4422;SDS011;2224;49.814;8.650;2022-08-25T16:57:37;4.60;;;4.20;;
4422;SDS011;2224;49.814;8.650;2022-08-25T17:00:06;5.43;;;4.93;;
4422;SDS011;2224;49.814;8.650;2022-08-25T17:02:35;4.93;;;4.53;;
4422;SDS011;2224;49.814;8.650;2022-08-25T17:05:01;5.97;;;5.47;;
4422;SDS011;2224;49.814;8.650;2022-08-25T17:07:26;5.07;;;4.57;;
4422;SDS011;2224;49.814;8.650;2022-08-25T17:09:52;5.50;;;4.63;;
4422;SDS011;2224;49.814;8.650;2022-08-25T17:12:17;5.10;;;4.60;;
4422;SDS011;2224;49.814;8.650;2022-08-25T17:14:44;5.33;;;4.93;;
4422;SDS011;2224;49.814;8.650;2022-08-25T17:17:09;4.43;;;4.03;;
4422;SDS011;2224;49.814;8.650;2022-08-25T17:19:35;6.67;;;4.83;;
4422;SDS011;2224;49.814;8.650;2022-08-25T17:22:01;5.37;;;4.87;;
4422;SDS011;2224;49.814;8.650;2022-08-25T17:24:26;5.30;;;4.80;;
4422;SDS011;2224;49.814;8.650;2022-08-25T17:26:51;5.93;;;5.20;;
4422;SDS011;2224;49.814;8.650;2022-08-25T17:29:17;6.90;;;4.97;;
4422;SDS011;2224;49.814;8.650;2022-08-25T17:31:43;7.03;;;4.30;;
4422;SDS011;2224;49.814;8.650;2022-08-25T17:34:10;10.03;;;5.20;;
4422;SDS011;2224;49.814;8.650;2022-08-25T17:36:37;4.80;;;4.30;;
4422;SDS011;2224;49.814;8.650;2022-08-25T17:39:04;5.20;;;4.80;;
4422;SDS011;2224;49.814;8.650;2022-08-25T17:41:30;5.17;;;4.70;;